createdAt,value
2022-08-10T00:00:28.630Z,7.5
2022-08-10T00:01:37.043Z,7.5
2022-08-10T00:02:45.385Z,7.5
2022-08-10T00:03:54.005Z,4.4
2022-08-10T00:05:02.413Z,4.4
2022-08-10T00:06:10.804Z,4.4
2022-08-10T00:07:19.408Z,4.9
2022-08-10T00:08:27.791Z,4.9
2022-08-10T00:09:49.962Z,4.9
2022-08-10T00:10:44.778Z,5
2022-08-10T00:11:53.171Z,5
2022-08-10T00:13:01.572Z,5
2022-08-10T00:14:10.177Z,5.2
2022-08-10T00:15:44.310Z,5.2
2022-08-10T00:16:26.949Z,5.2
2022-08-10T00:17:35.534Z,4.7
2022-08-10T00:18:43.910Z,4.7
2022-08-10T00:20:02.761Z,4.7
2022-08-10T00:21:00.912Z,5.2
2022-08-10T00:22:09.305Z,5.2
2022-08-10T00:23:17.702Z,5.2
2022-08-10T00:24:26.317Z,5.5
2022-08-10T00:25:34.700Z,5.5
2022-08-10T00:27:50.291Z,5.5
2022-08-10T00:28:02.371Z,6.2
2022-08-10T00:29:00.074Z,6.2
2022-08-10T00:30:08.494Z,6.2
2022-08-10T00:31:17.065Z,4.1
2022-08-10T00:32:25.512Z,4.1
2022-08-10T00:33:33.887Z,4.1
2022-08-10T00:34:42.469Z,7
2022-08-10T00:35:50.842Z,7
2022-08-10T00:36:59.278Z,7
2022-08-10T00:38:07.881Z,5.2
2022-08-10T00:39:16.301Z,5.2
2022-08-10T00:40:35.140Z,5.2
2022-08-10T00:41:33.254Z,5
2022-08-10T00:42:41.683Z,5
2022-08-10T00:43:50.087Z,5
2022-08-10T00:44:58.682Z,4.2
2022-08-10T00:46:07.125Z,4.2
2022-08-10T00:47:16.313Z,4.2
2022-08-10T00:48:24.091Z,5.2
2022-08-10T00:49:32.482Z,5.2
2022-08-10T00:50:40.855Z,5.2
2022-08-10T00:51:49.438Z,4.9
2022-08-10T00:52:57.883Z,4.9
2022-08-10T00:54:06.297Z,4.9
2022-08-10T00:55:14.876Z,5.6
2022-08-10T00:56:35.314Z,5.6
2022-08-10T00:57:31.674Z,5.6
2022-08-10T00:58:40.264Z,5.1
2022-08-10T00:59:57.576Z,5.1
2022-08-10T01:00:57.129Z,5.1
2022-08-10T01:02:08.065Z,5.2
2022-08-10T01:03:14.145Z,5.2
2022-08-10T01:04:36.959Z,5.2
2022-08-10T01:05:31.088Z,4.5
2022-08-10T01:06:39.475Z,4.5
2022-08-10T01:07:47.891Z,4.5
2022-08-10T01:08:56.458Z,4.6
2022-08-10T01:10:04.833Z,4.6
2022-08-10T01:12:28.718Z,4.6
2022-08-10T01:12:37.192Z,5.3
2022-08-10T01:13:30.184Z,5.3
2022-08-10T01:14:38.572Z,5.3
2022-08-10T01:15:47.178Z,5.3
2022-08-10T01:16:55.560Z,5.3
2022-08-10T01:18:03.979Z,5.3
2022-08-10T01:19:12.550Z,4.9
2022-08-10T01:20:27.371Z,4.9
2022-08-10T01:21:29.307Z,4.9
2022-08-10T01:22:37.900Z,6.1
2022-08-10T01:23:46.282Z,6.1
2022-08-10T01:24:54.654Z,6.1
2022-08-10T01:26:11.257Z,5.5
2022-08-10T01:27:11.602Z,5.5
2022-08-10T01:28:19.996Z,5.5
2022-08-10T01:29:28.615Z,4.4
2022-08-10T01:30:36.974Z,4.4
2022-08-10T01:31:45.372Z,4.4
2022-08-10T01:32:54.004Z,5.3
2022-08-10T01:34:02.836Z,5.3
2022-08-10T01:35:10.760Z,5.3
2022-08-10T01:36:19.360Z,5.7
2022-08-10T01:37:27.738Z,5.7
2022-08-10T01:38:36.169Z,5.7
2022-08-10T01:39:44.778Z,5
2022-08-10T01:40:53.152Z,5
2022-08-10T01:42:01.530Z,5
2022-08-10T01:43:10.157Z,4.9
2022-08-10T01:44:19.940Z,4.9
2022-08-10T01:45:26.897Z,4.9
2022-08-10T01:46:35.466Z,5.8
2022-08-10T01:47:43.879Z,5.8
2022-08-10T01:48:52.249Z,5.8
2022-08-10T01:50:00.868Z,5.2
2022-08-10T01:51:09.244Z,5.2
2022-08-10T01:52:18.057Z,5.2
2022-08-10T01:53:26.224Z,6.2
2022-08-10T01:54:34.589Z,6.2
2022-08-10T01:55:42.972Z,6.2
2022-08-10T01:56:51.547Z,5.4
2022-08-10T01:57:59.935Z,5.4
2022-08-10T01:59:08.297Z,5.4
2022-08-10T02:00:16.875Z,5.8
2022-08-10T02:01:25.268Z,5.8
2022-08-10T02:02:33.848Z,5.8
2022-08-10T02:04:01.186Z,6.8
2022-08-10T02:04:50.630Z,6.8
2022-08-10T02:05:59.035Z,6.8
2022-08-10T02:07:07.611Z,5.7
2022-08-10T02:08:15.990Z,5.7
2022-08-10T02:09:24.397Z,5.7
2022-08-10T02:10:32.968Z,4.9
2022-08-10T02:11:56.254Z,4.9
2022-08-10T02:12:49.747Z,4.9
2022-08-10T02:13:58.331Z,5
2022-08-10T02:15:06.705Z,5
2022-08-10T02:16:15.063Z,5
2022-08-10T02:17:58.783Z,5.5
2022-08-10T02:18:32.077Z,5.5
2022-08-10T02:19:40.494Z,5.5
2022-08-10T02:20:49.077Z,5.5
2022-08-10T02:22:35.495Z,5.5
2022-08-10T02:23:05.820Z,5.5
2022-08-10T02:24:14.465Z,4.9
2022-08-10T02:25:39.628Z,4.9
2022-08-10T02:26:31.229Z,4.9
2022-08-10T02:27:39.820Z,6.1
2022-08-10T02:28:48.195Z,6.1
2022-08-10T02:29:56.625Z,6.1
2022-08-10T02:31:06.313Z,6.3
2022-08-10T02:32:13.558Z,6.3
2022-08-10T02:33:21.930Z,6.3
2022-08-10T02:34:30.516Z,6
2022-08-10T02:35:53.942Z,6
2022-08-10T02:36:47.260Z,6
2022-08-10T02:37:55.876Z,6.5
2022-08-10T02:39:04.388Z,6.5
2022-08-10T02:42:19.189Z,6
2022-08-10T02:42:19.208Z,6.5
2022-08-10T02:45:08.402Z,6
2022-08-10T02:45:16.893Z,6.5
2022-08-10T02:45:25.246Z,6
2022-08-10T02:45:54.929Z,6.5
2022-08-10T02:47:03.350Z,6.5
2022-08-10T02:48:11.950Z,7
2022-08-10T02:49:20.362Z,7
2022-08-10T02:50:28.770Z,7
2022-08-10T02:52:06.179Z,5.9
2022-08-10T02:52:45.766Z,5.9
2022-08-10T02:53:56.751Z,5.9
2022-08-10T02:55:05.993Z,6.2
2022-08-10T02:56:11.094Z,6.2
2022-08-10T02:57:19.514Z,6.2
2022-08-10T02:58:28.096Z,6.7
2022-08-10T02:59:38.668Z,6.7
2022-08-10T03:00:44.912Z,6.7
2022-08-10T03:01:53.408Z,6.6
2022-08-10T03:03:01.797Z,6.6
2022-08-10T03:04:10.157Z,6.6
2022-08-10T03:05:18.755Z,5.4
2022-08-10T03:06:27.115Z,5.4
2022-08-10T03:07:42.708Z,5.4
2022-08-10T03:08:44.081Z,6
2022-08-10T03:09:52.470Z,6
2022-08-10T03:11:00.833Z,6
2022-08-10T03:12:16.459Z,5.6
2022-08-10T03:13:17.812Z,5.6
2022-08-10T03:14:26.245Z,5.6
2022-08-10T03:15:34.781Z,6.2
2022-08-10T03:16:43.153Z,6.2
2022-08-10T03:17:57.341Z,6.2
2022-08-10T03:19:00.141Z,6.1
2022-08-10T03:20:36.346Z,6.1
2022-08-10T03:21:16.899Z,6.1
2022-08-10T03:22:25.522Z,5.8
2022-08-10T03:23:33.876Z,5.8
2022-08-10T03:24:42.259Z,5.8
2022-08-10T03:25:52.878Z,7.6
2022-08-10T03:26:59.229Z,7.6
2022-08-10T03:28:07.591Z,7.6
2022-08-10T03:29:16.183Z,7.1
2022-08-10T03:30:31.764Z,7.1
2022-08-10T03:31:32.979Z,7.1
2022-08-10T03:32:41.583Z,6.2
2022-08-10T03:33:49.948Z,6.2
2022-08-10T03:34:58.319Z,6.2
2022-08-10T03:36:39.876Z,6
2022-08-10T03:37:15.495Z,6
2022-08-10T03:38:23.892Z,6
2022-08-10T03:39:32.570Z,7.3
2022-08-10T03:40:45.011Z,7.3
2022-08-10T03:41:53.384Z,7.3
2022-08-10T03:42:57.843Z,6.3
2022-08-10T03:44:06.215Z,6.3
2022-08-10T03:45:14.597Z,6.3
2022-08-10T03:46:23.173Z,14.9
2022-08-10T03:47:31.565Z,14.9
2022-08-10T03:48:47.082Z,14.9
2022-08-10T03:49:48.578Z,5.8
2022-08-10T03:50:57.027Z,5.8
2022-08-10T03:52:05.415Z,5.8
2022-08-10T03:53:25.020Z,6.6
2022-08-10T03:54:22.393Z,6.6
2022-08-10T03:56:27.732Z,6.6
2022-08-10T03:56:39.379Z,6.8
2022-08-10T03:57:49.426Z,6.8
2022-08-10T03:58:56.141Z,6.8
2022-08-10T04:00:04.737Z,6.8
2022-08-10T04:01:13.158Z,6.8
2022-08-10T04:02:42.401Z,6.8
2022-08-10T04:03:30.100Z,6.1
2022-08-10T04:04:38.508Z,6.1
2022-08-10T04:05:46.877Z,6.1
2022-08-10T04:06:55.975Z,6.2
2022-08-10T04:08:03.847Z,6.2
2022-08-10T04:09:12.265Z,6.2
2022-08-10T04:10:20.850Z,6.5
2022-08-10T04:11:29.902Z,6.5
2022-08-10T04:12:38.301Z,6.5
2022-08-10T04:13:46.879Z,6.7
2022-08-10T04:14:55.278Z,6.7
2022-08-10T04:16:07.412Z,6.7
2022-08-10T04:17:14.109Z,6.9
2022-08-10T04:18:20.583Z,6.9
2022-08-10T04:19:28.976Z,6.9
2022-08-10T04:20:37.570Z,8
2022-08-10T04:21:45.948Z,8
2022-08-10T04:22:54.334Z,8
2022-08-10T04:24:02.887Z,7.7
2022-08-10T04:25:11.253Z,7.7
2022-08-10T04:26:19.613Z,7.7
2022-08-10T04:27:28.206Z,6.8
2022-08-10T04:28:36.575Z,6.8
2022-08-10T04:29:44.949Z,6.8
2022-08-10T04:30:53.551Z,6.9
2022-08-10T04:32:01.929Z,6.9
2022-08-10T04:33:10.309Z,6.9
2022-08-10T04:34:18.874Z,7
2022-08-10T04:35:27.244Z,7
2022-08-10T04:36:35.612Z,7
2022-08-10T04:37:47.429Z,9.3
2022-08-10T04:38:52.581Z,9.3
2022-08-10T04:40:00.963Z,9.3
2022-08-10T04:41:09.567Z,10.8
2022-08-10T04:42:17.924Z,10.8
2022-08-10T04:43:26.290Z,10.8
2022-08-10T04:44:34.856Z,9.2
2022-08-10T04:45:47.951Z,9.2
2022-08-10T04:46:56.636Z,9.2
2022-08-10T04:48:03.169Z,7.5
2022-08-10T04:49:17.071Z,7.5
2022-08-10T04:50:16.929Z,7.5
2022-08-10T04:51:25.555Z,9.2
2022-08-10T04:52:34.151Z,9.2
2022-08-10T04:54:03.514Z,9.2
2022-08-10T04:54:50.928Z,7.5
2022-08-10T04:55:59.302Z,7.5
2022-08-10T04:57:07.696Z,7.5
2022-08-10T04:58:16.273Z,7
2022-08-10T04:59:24.661Z,7
2022-08-10T05:00:33.083Z,7
2022-08-10T05:02:12.624Z,8.8
2022-08-10T05:02:50.002Z,8.8
2022-08-10T05:04:32.894Z,8.8
2022-08-10T05:05:06.925Z,6.9
2022-08-10T05:06:15.326Z,6.9
2022-08-10T05:07:23.693Z,6.9
2022-08-10T05:08:32.284Z,6.3
2022-08-10T05:10:00.892Z,6.3
2022-08-10T05:10:49.024Z,6.3
2022-08-10T05:11:57.610Z,7.1
2022-08-10T05:13:06.035Z,7.1
2022-08-10T05:14:14.361Z,7.1
2022-08-10T05:15:22.924Z,7.6
2022-08-10T05:16:31.659Z,7.6
2022-08-10T05:17:39.697Z,7.6
2022-08-10T05:18:48.263Z,6
2022-08-10T05:20:02.676Z,6
2022-08-10T05:21:05.028Z,6
2022-08-10T05:22:13.617Z,7.5
2022-08-10T05:23:22.003Z,7.5
2022-08-10T05:24:30.384Z,7.5
2022-08-10T05:25:38.967Z,6.2
2022-08-10T05:26:55.377Z,6.2
2022-08-10T05:27:57.671Z,6.2
2022-08-10T05:29:04.306Z,6.4
2022-08-10T05:30:12.672Z,6.4
2022-08-10T05:31:22.502Z,6.4
2022-08-10T05:32:29.603Z,7.1
2022-08-10T05:33:37.987Z,7.1
2022-08-10T05:34:46.343Z,7.1
2022-08-10T05:35:56.643Z,9.6
2022-08-10T05:37:03.339Z,9.6
2022-08-10T05:38:14.436Z,9.6
2022-08-10T05:39:25.322Z,9.1
2022-08-10T05:40:28.671Z,9.1
2022-08-10T05:41:39.227Z,9.1
2022-08-10T05:42:45.657Z,6.6
2022-08-10T05:43:54.071Z,6.6
2022-08-10T05:45:02.465Z,6.6
2022-08-10T05:46:16.058Z,6.1
2022-08-10T05:47:19.435Z,6.1
2022-08-10T05:48:40.868Z,6.1
2022-08-10T05:49:36.376Z,7.3
2022-08-10T05:50:44.830Z,7.3
2022-08-10T05:51:53.925Z,7.3
2022-08-10T05:53:23.125Z,9.7
2022-08-10T05:54:10.897Z,9.7
2022-08-10T05:55:19.297Z,9.7
2022-08-10T05:56:27.874Z,7.7
2022-08-10T05:57:36.265Z,7.7
2022-08-10T05:58:44.636Z,7.7
2022-08-10T06:00:09.558Z,7.6
2022-08-10T06:01:01.689Z,7.6
2022-08-10T06:02:32.382Z,7.6
2022-08-10T06:03:18.542Z,5.4
2022-08-10T06:04:26.934Z,5.4
2022-08-10T06:05:35.312Z,5.4
2022-08-10T06:06:43.885Z,5.5
2022-08-10T06:07:52.258Z,5.5
2022-08-10T06:09:00.658Z,5.5
2022-08-10T06:10:10.285Z,7.1
2022-08-10T06:12:21.799Z,7.1
2022-08-10T06:12:29.418Z,7.1
2022-08-10T06:13:53.704Z,6.5
2022-08-10T06:14:42.924Z,6.5
2022-08-10T06:15:52.368Z,6.5
2022-08-10T06:16:59.863Z,8.2
2022-08-10T06:18:08.257Z,8.2
2022-08-10T06:19:16.627Z,8.2
2022-08-10T06:20:25.215Z,35.900002
2022-08-10T06:21:33.558Z,35.900002
2022-08-10T06:22:41.902Z,35.900002
2022-08-10T06:23:50.488Z,5.1
2022-08-10T06:25:27.237Z,5.1
2022-08-10T06:26:09.204Z,5.1
2022-08-10T06:27:15.823Z,8.4
2022-08-10T06:28:24.195Z,8.4
2022-08-10T06:29:32.557Z,8.4
2022-08-10T06:30:41.110Z,6.2
2022-08-10T06:31:49.992Z,6.2
2022-08-10T06:32:57.802Z,6.2
2022-08-10T06:34:06.361Z,4.7
2022-08-10T06:35:14.717Z,4.7
2022-08-10T06:36:23.061Z,4.7
2022-08-10T06:37:31.623Z,7.2
2022-08-10T06:38:39.970Z,7.2
2022-08-10T06:39:48.366Z,7.2
2022-08-10T06:40:56.884Z,4.7
2022-08-10T06:42:15.589Z,4.7
2022-08-10T06:43:13.589Z,4.7
2022-08-10T06:44:22.168Z,4.7
2022-08-10T06:45:30.510Z,4.7
2022-08-10T06:46:38.857Z,4.7
2022-08-10T06:47:47.405Z,4.5
2022-08-10T06:48:55.759Z,4.5
2022-08-10T06:50:04.881Z,4.5
2022-08-10T06:51:12.676Z,5.5
2022-08-10T06:52:21.035Z,5.5
2022-08-10T06:53:51.821Z,5.5
2022-08-10T06:54:37.948Z,6.8
2022-08-10T06:55:50.218Z,6.8
2022-08-10T06:57:08.403Z,6.8
2022-08-10T06:58:03.229Z,5.2
2022-08-10T06:59:13.474Z,5.2
2022-08-10T07:00:20.330Z,5.2
2022-08-10T07:01:28.604Z,6.4
2022-08-10T07:02:37.034Z,6.4
2022-08-10T07:03:45.208Z,6.4
2022-08-10T07:04:53.793Z,7.6
2022-08-10T07:06:02.153Z,7.6
2022-08-10T07:07:10.517Z,7.6
2022-08-10T07:08:19.097Z,6.9
2022-08-10T07:09:27.477Z,6.9
2022-08-10T07:10:41.017Z,6.9
2022-08-10T07:11:44.436Z,6.9
2022-08-10T07:12:52.788Z,6.9
2022-08-10T07:14:13.838Z,6.9
2022-08-10T07:15:09.743Z,8
2022-08-10T07:16:18.094Z,8
2022-08-10T07:17:26.462Z,8
2022-08-10T07:18:35.048Z,5
2022-08-10T07:19:55.073Z,5
2022-08-10T07:21:14.926Z,5
2022-08-10T07:23:00.832Z,5
2022-08-10T07:23:56.675Z,5
2022-08-10T07:24:45.919Z,5
2022-08-10T07:26:13.051Z,7.5
2022-08-10T07:27:59.484Z,7.5
2022-08-10T07:29:01.969Z,7.5
2022-08-10T07:30:13.141Z,5.8
2022-08-10T07:31:29.564Z,5.8
2022-08-10T07:32:31.450Z,5.8
2022-08-10T07:33:47.074Z,3.4
2022-08-10T07:34:57.208Z,3.4
2022-08-10T07:36:13.189Z,3.4
2022-08-10T07:38:49.862Z,3.8
2022-08-10T07:40:02.011Z,3.8
2022-08-10T07:41:16.549Z,4.7
2022-08-10T07:42:45.571Z,4.7
2022-08-10T07:43:50.198Z,4.7
2022-08-10T07:45:04.913Z,3.8
2022-08-10T07:46:12.537Z,3.8
2022-08-10T07:47:45.939Z,3.8
2022-08-10T07:50:19.375Z,3.5
2022-08-10T07:51:34.032Z,3.5
2022-08-10T07:58:00.155Z,5.9
2022-08-10T07:59:29.113Z,5.9
2022-08-10T08:01:24.064Z,5.9
2022-08-10T08:02:49.905Z,3.5
2022-08-10T08:04:06.098Z,3.5
2022-08-10T08:05:06.623Z,3.5
2022-08-10T08:06:15.192Z,2.9
2022-08-10T08:07:23.556Z,2.9
2022-08-10T08:08:31.933Z,2.9
2022-08-10T08:09:57.195Z,2.7
2022-08-10T08:10:48.855Z,2.7
2022-08-10T08:11:57.215Z,2.7
2022-08-10T08:13:05.774Z,3.1
2022-08-10T08:14:14.142Z,3.1
2022-08-10T08:16:15.830Z,3.1
2022-08-10T08:16:31.069Z,3.7
2022-08-10T08:17:39.444Z,3.7
2022-08-10T08:18:54.212Z,3.7
2022-08-10T08:19:56.401Z,3.8
2022-08-10T08:21:13.661Z,3.8
2022-08-10T08:24:04.018Z,3.2
2022-08-10T08:24:04.316Z,3.8
2022-08-10T08:25:03.213Z,3.2
2022-08-10T08:26:30.279Z,3.2
2022-08-10T08:27:40.230Z,3.2
2022-08-10T08:28:48.608Z,3.2
2022-08-10T08:29:56.979Z,3.2
2022-08-10T08:31:15.880Z,4.2
2022-08-10T08:33:54.215Z,4.2
2022-08-10T08:35:02.789Z,4.2
2022-08-10T08:36:11.144Z,4.2
2022-08-10T08:38:26.507Z,4.2
2022-08-10T08:38:31.518Z,5.4
2022-08-10T08:39:36.482Z,5.4
2022-08-10T08:40:44.799Z,5.4
2022-08-10T08:41:53.378Z,4.9
2022-08-10T08:43:01.769Z,4.9
2022-08-10T08:44:10.124Z,4.9
2022-08-10T08:45:18.687Z,2.7
2022-08-10T08:46:27.049Z,2.7
2022-08-10T08:48:03.460Z,2.7
2022-08-10T08:48:43.995Z,3.4
2022-08-10T08:50:05.469Z,3.4
2022-08-10T08:51:01.689Z,3.4
2022-08-10T08:52:18.486Z,4
2022-08-10T08:53:22.103Z,4
2022-08-10T08:54:27.051Z,4
2022-08-10T08:55:50.114Z,4.9
2022-08-10T08:56:45.801Z,4.9
2022-08-10T08:57:51.380Z,4.9
2022-08-10T08:59:00.895Z,4.5
2022-08-10T09:00:08.263Z,4.5
2022-08-10T09:01:16.645Z,4.5
2022-08-10T09:02:25.176Z,4.6
2022-08-10T09:03:33.559Z,4.6
2022-08-10T09:04:41.929Z,4.6
2022-08-10T09:05:59.041Z,3.8
2022-08-10T09:06:58.863Z,3.8
2022-08-10T09:08:07.212Z,3.8
2022-08-10T09:09:15.767Z,5.7
2022-08-10T09:10:24.109Z,5.7
2022-08-10T09:11:32.480Z,5.7
2022-08-10T09:12:41.067Z,3.3
2022-08-10T09:13:49.423Z,3.3
2022-08-10T09:14:57.795Z,3.3
2022-08-10T09:16:06.362Z,3.7
2022-08-10T09:17:14.728Z,3.7
2022-08-10T09:18:23.104Z,3.7
2022-08-10T09:19:35.292Z,3
2022-08-10T09:20:40.025Z,3
2022-08-10T09:21:59.300Z,3
2022-08-10T09:22:57.668Z,4.3
2022-08-10T09:24:06.260Z,4.3
2022-08-10T09:25:13.691Z,4.3
2022-08-10T09:26:22.255Z,3.5
2022-08-10T09:27:30.599Z,3.5
2022-08-10T09:28:38.983Z,3.5
2022-08-10T09:29:47.550Z,6
2022-08-10T09:31:19.128Z,6
2022-08-10T09:33:06.359Z,6
2022-08-10T09:36:17.714Z,4.5
2022-08-10T09:36:18.117Z,4.5
2022-08-10T09:36:18.611Z,4.5
2022-08-10T09:36:38.329Z,6.4
2022-08-10T09:38:01.480Z,6.4
2022-08-10T09:38:54.916Z,6.4
2022-08-10T09:40:06.369Z,4.3
2022-08-10T09:41:13.416Z,4.3
2022-08-10T09:42:20.223Z,4.3
2022-08-10T09:43:28.803Z,6.7
2022-08-10T09:44:57.755Z,6.7
2022-08-10T09:45:45.530Z,6.7
2022-08-10T09:46:54.099Z,3.9
2022-08-10T09:48:03.248Z,3.9
2022-08-10T09:49:10.823Z,3.9
2022-08-10T09:50:19.406Z,6.3
2022-08-10T09:51:44.569Z,6.3
2022-08-10T09:52:36.240Z,6.3
2022-08-10T09:53:44.713Z,5.8
2022-08-10T09:54:53.086Z,5.8
2022-08-10T09:56:16.641Z,5.8
2022-08-10T09:57:43.693Z,5
2022-08-10T09:58:18.442Z,5
2022-08-10T09:59:59.740Z,5
2022-08-10T10:00:35.384Z,4.9
2022-08-10T10:01:56.444Z,4.9
2022-08-10T10:02:52.162Z,4.9
2022-08-10T10:04:00.697Z,7.5
2022-08-10T10:05:09.062Z,7.5
2022-08-10T10:06:17.435Z,7.5
2022-08-10T10:07:26.001Z,6.3
2022-08-10T10:08:34.782Z,6.3
2022-08-10T10:09:51.272Z,6.3
2022-08-10T10:11:10.443Z,5
2022-08-10T10:12:20.641Z,5
2022-08-10T10:13:41.796Z,5
2022-08-10T10:14:39.377Z,5.8
2022-08-10T10:15:47.853Z,5.8
2022-08-10T10:16:56.213Z,5.8
2022-08-10T10:18:04.780Z,3.8
2022-08-10T10:19:13.143Z,3.8
2022-08-10T10:20:22.265Z,3.8
2022-08-10T10:21:54.902Z,4.4
2022-08-10T10:22:39.223Z,4.4
2022-08-10T10:24:05.558Z,4.4
2022-08-10T10:24:56.289Z,7.9
2022-08-10T10:26:08.560Z,7.9
2022-08-10T10:27:15.899Z,7.9
2022-08-10T10:28:22.080Z,3.2
2022-08-10T10:29:57.841Z,3.2
2022-08-10T10:30:39.702Z,3.2
2022-08-10T10:31:48.850Z,9.2
2022-08-10T10:33:00.212Z,9.2
2022-08-10T10:34:08.593Z,9.2
2022-08-10T10:35:17.176Z,5.1
2022-08-10T10:36:25.546Z,5.1
2022-08-10T10:38:00.629Z,5.1
2022-08-10T10:38:42.489Z,4.1
2022-08-10T10:39:50.911Z,4.1
2022-08-10T10:40:59.228Z,4.1
2022-08-10T10:42:14.731Z,4
2022-08-10T10:43:16.160Z,4
2022-08-10T10:44:24.527Z,4
2022-08-10T10:45:33.087Z,5.2
2022-08-10T10:46:41.451Z,5.2
2022-08-10T10:47:49.810Z,5.2
2022-08-10T10:48:58.388Z,3.9
2022-08-10T10:50:06.758Z,3.9
2022-08-10T10:51:15.108Z,3.9
2022-08-10T10:52:23.702Z,4.5
2022-08-10T10:53:32.075Z,4.5
2022-08-10T10:54:40.438Z,4.5
2022-08-10T10:56:13.204Z,5.7
2022-08-10T10:56:57.400Z,5.7
2022-08-10T10:58:05.921Z,5.7
2022-08-10T10:59:15.400Z,3.1
2022-08-10T11:00:22.709Z,3.1
2022-08-10T11:01:31.101Z,3.1
2022-08-10T11:02:39.655Z,4.2
2022-08-10T11:03:51.002Z,4.2
2022-08-10T11:05:00.459Z,4.2
2022-08-10T11:06:09.709Z,3.4
2022-08-10T11:07:18.262Z,3.4
2022-08-10T11:08:28.932Z,3.4
2022-08-10T11:10:03.164Z,4.5
2022-08-10T11:10:46.954Z,4.5
2022-08-10T11:12:01.002Z,4.5
2022-08-10T11:13:03.050Z,4.8
2022-08-10T11:14:24.116Z,4.8
2022-08-10T11:15:17.328Z,4.8
2022-08-10T11:16:25.899Z,4.6
2022-08-10T11:17:34.264Z,4.6
2022-08-10T11:18:42.626Z,4.6
2022-08-10T11:20:00.627Z,4.2
2022-08-10T11:20:59.577Z,4.2
2022-08-10T11:22:07.924Z,4.2
2022-08-10T11:23:16.475Z,4.7
2022-08-10T11:24:42.454Z,4.7
2022-08-10T11:25:33.199Z,4.7
2022-08-10T11:26:41.779Z,5.2
2022-08-10T11:27:50.145Z,5.2
2022-08-10T11:28:58.504Z,5.2
2022-08-10T11:30:07.057Z,3.9
2022-08-10T11:31:15.425Z,3.9
2022-08-10T11:32:23.899Z,3.9
2022-08-10T11:33:34.945Z,3.2
2022-08-10T11:35:10.846Z,3.2
2022-08-10T11:35:56.402Z,3.2
2022-08-10T11:37:04.928Z,3
2022-08-10T11:38:28.739Z,3
2022-08-10T11:39:21.686Z,3
2022-08-10T11:40:30.218Z,4
2022-08-10T11:42:06.000Z,4
2022-08-10T11:42:47.605Z,4
2022-08-10T11:44:07.264Z,3.9
2022-08-10T11:45:15.655Z,3.9
2022-08-10T11:46:28.576Z,3.9
2022-08-10T11:47:32.828Z,4.7
2022-08-10T11:48:52.603Z,4.7
2022-08-10T11:49:50.140Z,4.7
2022-08-10T11:51:00.544Z,3.6
2022-08-10T11:52:09.073Z,3.6
2022-08-10T11:53:20.351Z,3.6
2022-08-10T11:54:29.009Z,4.2
2022-08-10T11:55:37.411Z,4.2
2022-08-10T11:56:45.869Z,4.2
2022-08-10T11:57:55.801Z,5.8
2022-08-10T11:59:16.914Z,5.8
2022-08-10T12:00:11.240Z,5.8
2022-08-10T12:01:19.867Z,5
2022-08-10T12:02:28.279Z,5
2022-08-10T12:03:36.620Z,5
2022-08-10T12:04:45.166Z,5.1
2022-08-10T12:05:54.036Z,5.1
2022-08-10T12:07:01.892Z,5.1
2022-08-10T12:08:55.191Z,4.9
2022-08-10T12:10:07.995Z,4.9
2022-08-10T12:10:27.215Z,4.9
2022-08-10T12:11:35.815Z,4.2
2022-08-10T12:12:44.172Z,4.2
2022-08-10T12:14:10.978Z,4.2
2022-08-10T12:15:01.149Z,2.9
2022-08-10T12:16:09.518Z,2.9
2022-08-10T12:17:17.888Z,2.9
2022-08-10T12:18:26.463Z,3.8
2022-08-10T12:19:36.614Z,3.8
2022-08-10T12:20:43.187Z,3.8
2022-08-10T12:21:51.752Z,4.7
2022-08-10T12:23:00.115Z,4.7
2022-08-10T12:24:08.503Z,4.7
2022-08-10T12:25:54.774Z,3.2
2022-08-10T12:26:25.437Z,3.2
2022-08-10T12:27:33.792Z,3.2
2022-08-10T12:28:49.754Z,5
2022-08-10T12:29:50.740Z,5
2022-08-10T12:30:59.103Z,5
2022-08-10T12:32:07.680Z,3.1
2022-08-10T12:33:16.047Z,3.1
2022-08-10T12:34:24.430Z,3.1
2022-08-10T12:35:32.999Z,3.6
2022-08-10T12:36:41.360Z,3.6
2022-08-10T12:37:50.969Z,3.6
2022-08-10T12:38:58.288Z,3.9
2022-08-10T12:40:33.704Z,3.9
2022-08-10T12:41:15.020Z,3.9
2022-08-10T12:42:27.707Z,5.1
2022-08-10T12:44:04.112Z,5.1
2022-08-10T12:44:41.887Z,5.1
2022-08-10T12:45:48.918Z,8.2
2022-08-10T12:46:57.289Z,8.2
2022-08-10T12:48:05.668Z,8.2
2022-08-10T12:49:14.234Z,5.6
2022-08-10T12:50:31.689Z,5.6
2022-08-10T12:51:30.952Z,5.6
2022-08-10T12:52:39.540Z,5.6
2022-08-10T12:53:47.892Z,5.6
2022-08-10T12:54:56.250Z,5.6
2022-08-10T12:56:04.812Z,6.7
2022-08-10T12:57:13.454Z,6.7
2022-08-10T12:58:58.436Z,6.7
2022-08-10T12:59:31.287Z,6.5
2022-08-10T13:00:54.014Z,6.5
2022-08-10T13:02:07.197Z,6.5
2022-08-10T13:02:57.471Z,6.4
2022-08-10T13:04:20.154Z,6.4
2022-08-10T13:05:14.579Z,6.4
2022-08-10T13:06:24.191Z,5.7
2022-08-10T13:08:04.277Z,5.7
2022-08-10T13:08:41.517Z,5.7
2022-08-10T13:09:54.009Z,4.6
2022-08-10T13:10:59.065Z,4.6
2022-08-10T13:12:37.635Z,4.6
2022-08-10T13:13:16.502Z,6.1
2022-08-10T13:14:25.089Z,6.1
2022-08-10T13:15:46.146Z,6.1
2022-08-10T13:16:42.481Z,3.9
2022-08-10T13:17:53.244Z,3.9
2022-08-10T13:18:59.730Z,3.9
2022-08-10T13:20:13.737Z,4.7
2022-08-10T13:21:19.459Z,4.7
2022-08-10T13:22:25.680Z,4.7
2022-08-10T13:23:34.364Z,3.6
2022-08-10T13:24:42.915Z,3.6
2022-08-10T13:25:51.415Z,3.6
2022-08-10T13:27:25.435Z,4.8
2022-08-10T13:28:35.216Z,4.8
2022-08-10T13:29:16.943Z,4.8
2022-08-10T13:30:32.140Z,4.2
2022-08-10T13:32:03.276Z,4.2
2022-08-10T13:32:42.480Z,4.2
2022-08-10T13:34:04.199Z,6
2022-08-10T13:35:00.121Z,6
2022-08-10T13:36:08.552Z,6
2022-08-10T13:37:17.188Z,4
2022-08-10T13:38:25.599Z,4
2022-08-10T13:39:57.615Z,4
2022-08-10T13:40:42.663Z,4.6
2022-08-10T13:41:51.091Z,4.6
2022-08-10T13:42:59.561Z,4.6
2022-08-10T13:44:08.223Z,4.8
2022-08-10T13:45:17.629Z,4.8
2022-08-10T13:46:26.115Z,4.8
2022-08-10T13:47:36.324Z,5.3
2022-08-10T13:48:43.187Z,5.3
2022-08-10T13:49:51.548Z,5.3
2022-08-10T13:51:00.123Z,5.6
2022-08-10T13:52:08.491Z,5.6
2022-08-10T13:53:16.871Z,5.6
2022-08-10T13:54:25.443Z,5.3
2022-08-10T13:55:45.890Z,5.3
2022-08-10T13:56:42.109Z,5.3
2022-08-10T13:57:50.670Z,4.8
2022-08-10T13:58:59.045Z,4.8
2022-08-10T14:00:33.467Z,4.8
2022-08-10T14:01:15.961Z,3.5
2022-08-10T14:02:24.302Z,3.5
2022-08-10T14:03:32.671Z,3.5
2022-08-10T14:04:41.254Z,4
2022-08-10T14:05:49.589Z,4
2022-08-10T14:06:57.949Z,4
2022-08-10T14:08:06.513Z,4.1
2022-08-10T14:09:14.887Z,4.1
2022-08-10T14:11:02.144Z,4.1
2022-08-10T14:11:31.772Z,4.9
2022-08-10T14:12:40.119Z,4.9
2022-08-10T14:13:48.522Z,4.9
2022-08-10T14:14:57.100Z,4.5
2022-08-10T14:16:05.457Z,4.5
2022-08-10T14:17:13.819Z,4.5
2022-08-10T14:18:22.398Z,5.1
2022-08-10T14:19:30.735Z,5.1
2022-08-10T14:20:39.086Z,5.1
2022-08-10T14:21:47.650Z,4.7
2022-08-10T14:22:56.022Z,4.7
2022-08-10T14:24:04.399Z,4.7
2022-08-10T14:25:12.966Z,7.3
2022-08-10T14:26:21.297Z,7.3
2022-08-10T14:28:02.661Z,7.3
2022-08-10T14:28:38.256Z,3.8
2022-08-10T15:02:39.420Z,0
2022-08-10T15:03:59.661Z,0
2022-08-10T15:04:46.468Z,0
2022-08-10T15:05:54.995Z,4
2022-08-10T15:07:03.349Z,4
2022-08-10T15:08:11.743Z,4
2022-08-10T15:09:20.309Z,4.3
2022-08-10T15:10:28.750Z,4.3
2022-08-10T15:12:12.562Z,4.3
2022-08-10T15:12:45.598Z,4.6
2022-08-10T15:14:15.028Z,4.6
2022-08-10T15:15:02.299Z,4.6
2022-08-10T15:16:12.782Z,4.4
2022-08-10T15:17:19.252Z,4.4
2022-08-10T15:18:27.629Z,4.4
2022-08-10T15:20:02.003Z,4.6
2022-08-10T15:20:44.536Z,4.6
2022-08-10T15:22:01.500Z,4.6
2022-08-10T15:23:01.444Z,5.4
2022-08-10T15:24:10.121Z,5.4
2022-08-10T15:25:24.229Z,5.4
2022-08-10T15:26:26.708Z,5.2
2022-08-10T15:27:54.164Z,5.2
2022-08-10T15:29:01.930Z,5.2
2022-08-10T15:29:56.835Z,4.3
2022-08-10T15:31:00.373Z,4.3
2022-08-10T15:32:08.736Z,4.3
2022-08-10T15:33:21.083Z,5.6
2022-08-10T15:34:28.560Z,5.6
2022-08-10T15:35:34.001Z,5.6
2022-08-10T15:36:42.554Z,6.9
2022-08-10T15:37:54.292Z,6.9
2022-08-10T15:38:59.304Z,6.9
2022-08-10T15:40:22.709Z,5.2
2022-08-10T15:41:16.298Z,5.2
2022-08-10T15:42:24.601Z,5.2
2022-08-10T15:43:34.466Z,6.3
2022-08-10T15:44:41.543Z,6.3
2022-08-10T15:45:49.911Z,6.3
2022-08-10T15:46:58.509Z,3.7
2022-08-10T15:48:06.863Z,3.7
2022-08-10T15:49:15.221Z,3.7
2022-08-10T15:50:23.815Z,3.5
2022-08-10T15:51:53.369Z,3.5
2022-08-10T15:53:01.427Z,3.5
2022-08-10T15:53:50.142Z,4.3
2022-08-10T15:54:57.462Z,4.3
2022-08-10T15:56:05.831Z,4.3
2022-08-10T15:57:14.406Z,4.1
2022-08-10T15:58:23.874Z,4.1
2022-08-10T15:59:31.138Z,4.1
2022-08-10T16:00:39.726Z,4
2022-08-10T16:02:05.249Z,4
2022-08-10T16:02:56.517Z,4
2022-08-10T16:04:08.155Z,5.2
2022-08-10T16:05:13.416Z,5.2
2022-08-10T16:06:21.841Z,5.2
2022-08-10T16:07:37.218Z,4.1
2022-08-10T16:08:50.293Z,4.1
2022-08-10T16:10:11.250Z,4.1
2022-08-10T16:10:57.057Z,5.6
2022-08-10T16:12:05.438Z,5.6
2022-08-10T16:13:49.882Z,5.6
2022-08-10T16:14:22.985Z,5.2
2022-08-10T16:15:31.346Z,5.2
2022-08-10T16:16:39.709Z,5.2
2022-08-10T16:17:55.178Z,4.9
2022-08-10T16:18:56.675Z,4.9
2022-08-10T16:20:05.054Z,4.9
2022-08-10T16:21:13.603Z,3.7
2022-08-10T16:22:33.918Z,3.7
2022-08-10T16:23:30.376Z,3.7
2022-08-10T16:24:38.940Z,68
2022-08-10T16:25:51.352Z,68
2022-08-10T16:26:55.700Z,68
2022-08-10T16:28:04.300Z,4.9
2022-08-10T16:29:12.703Z,4.9
2022-08-10T16:30:21.073Z,4.9
2022-08-10T16:31:29.696Z,5.7
2022-08-10T16:32:38.076Z,5.7
2022-08-10T16:33:53.308Z,5.7
2022-08-10T16:34:55.069Z,4.4
2022-08-10T16:36:03.432Z,4.4
2022-08-10T16:37:11.828Z,4.4
2022-08-10T16:38:20.427Z,5.2